Time;durP1;ratioP1;P1;durP2;ratioP2;P2;SDS_P1;SDS_P2;PMS_P1;PMS_P2;Temp;Humidity;BMP_temperature;BMP_pressure;BME280_temperature;BME280_humidity;BME280_pressure;Samples;Min_cycle;Max_cycle;Signal;HPM_P1;HPM_P2
2024/03/24 00:00:22;;;;;;;7.47;4.07;;;4.40;99.90;;;;;;5063424;28;20044;-47
2024/03/24 00:02:48;;;;;;;7.30;3.60;;;4.50;99.90;;;;;;5069102;28;20105;-43
2024/03/24 00:05:14;;;;;;;5.18;3.72;;;4.50;99.90;;;;;;5064204;28;20052;-50
2024/03/24 00:07:40;;;;;;;6.93;3.75;;;4.50;99.90;;;;;;5061467;28;20493;-44
2024/03/24 00:10:06;;;;;;;6.57;3.60;;;4.50;99.90;;;;;;5065358;28;20043;-48
2024/03/24 00:12:32;;;;;;;5.60;3.40;;;4.50;99.90;;;;;;5063546;28;20032;-47
2024/03/24 00:14:58;;;;;;;6.05;3.45;;;4.60;99.90;;;;;;5064772;28;20440;-50
2024/03/24 00:17:25;;;;;;;5.05;3.60;;;4.60;99.90;;;;;;5063548;28;20117;-48
2024/03/24 00:19:51;;;;;;;5.28;3.33;;;4.60;99.90;;;;;;5064738;28;20045;-48
2024/03/24 00:22:17;;;;;;;5.47;3.17;;;4.60;99.90;;;;;;5058110;28;20108;-47
2024/03/24 00:24:43;;;;;;;4.93;3.33;;;4.70;99.90;;;;;;5075112;28;20047;-49
2024/03/24 00:27:09;;;;;;;6.32;3.67;;;4.60;99.90;;;;;;5064562;28;20044;-45
2024/03/24 00:29:35;;;;;;;6.05;3.83;;;4.60;99.90;;;;;;5060516;28;20110;-43
2024/03/24 00:32:02;;;;;;;9.52;4.03;;;4.50;99.90;;;;;;5060258;28;20065;-48
2024/03/24 00:34:28;;;;;;;9.23;3.85;;;4.50;99.90;;;;;;5064914;28;20055;-46
2024/03/24 00:36:53;;;;;;;4.53;3.20;;;4.50;99.90;;;;;;5053129;28;20041;-46
2024/03/24 00:39:19;;;;;;;7.85;3.35;;;4.60;99.90;;;;;;5065235;28;20060;-44
2024/03/24 00:41:45;;;;;;;7.57;3.55;;;4.60;99.90;;;;;;5064597;28;20072;-48
2024/03/24 00:44:11;;;;;;;5.70;3.45;;;4.60;99.90;;;;;;5060974;28;20093;-48
2024/03/24 00:46:37;;;;;;;5.35;3.60;;;4.50;99.90;;;;;;5065655;28;20090;-44
2024/03/24 00:49:05;;;;;;;7.38;3.70;;;4.60;99.90;;;;;;5063362;28;20049;-42
2024/03/24 00:51:31;;;;;;;5.60;3.60;;;4.60;99.90;;;;;;5067082;28;20048;-43
2024/03/24 00:53:58;;;;;;;6.47;3.50;;;4.50;99.90;;;;;;5066222;28;20101;-42
2024/03/24 00:56:23;;;;;;;7.80;3.60;;;4.50;99.90;;;;;;5067394;28;20471;-46
2024/03/24 00:58:49;;;;;;;5.93;3.65;;;4.40;99.90;;;;;;5046755;28;20241;-44
2024/03/24 01:01:15;;;;;;;7.78;3.63;;;4.40;99.90;;;;;;5066636;28;20524;-43
2024/03/24 01:03:42;;;;;;;5.15;3.70;;;4.40;99.90;;;;;;5050978;28;20129;-45
2024/03/24 01:06:08;;;;;;;7.72;3.88;;;4.50;99.90;;;;;;5060394;28;20045;-48
2024/03/24 01:08:34;;;;;;;7.53;3.90;;;4.50;99.90;;;;;;5062245;28;20048;-44
2024/03/24 01:11:04;;;;;;;6.65;3.45;;;4.50;99.90;;;;;;5060638;28;20060;-42
2024/03/24 01:13:30;;;;;;;7.35;3.92;;;4.50;99.90;;;;;;5064719;28;20048;-45
2024/03/24 01:15:56;;;;;;;6.78;3.70;;;4.50;99.90;;;;;;5061881;28;20075;-48
2024/03/24 01:18:22;;;;;;;8.15;3.78;;;4.50;99.90;;;;;;5065114;28;20307;-46
2024/03/24 01:20:48;;;;;;;11.45;3.97;;;4.60;99.90;;;;;;5046545;28;20044;-45
2024/03/24 01:23:14;;;;;;;6.20;3.88;;;4.60;99.90;;;;;;5064625;28;20110;-50
2024/03/24 01:25:40;;;;;;;5.18;3.35;;;4.60;99.90;;;;;;5058397;28;20074;-45
2024/03/24 01:28:06;;;;;;;6.30;3.65;;;4.60;99.90;;;;;;5063890;28;20135;-46
2024/03/24 01:30:32;;;;;;;8.65;4.25;;;4.60;99.90;;;;;;5064896;28;20044;-43
2024/03/24 01:32:58;;;;;;;8.38;3.47;;;4.70;99.90;;;;;;5067581;28;20060;-47
2024/03/24 01:35:24;;;;;;;5.50;3.45;;;4.70;99.90;;;;;;5066486;28;20048;-43
2024/03/24 01:37:50;;;;;;;6.95;3.30;;;4.70;99.90;;;;;;5067819;28;20088;-41
2024/03/24 01:40:16;;;;;;;8.63;3.72;;;4.60;99.90;;;;;;5067491;28;20366;-42
2024/03/24 01:42:42;;;;;;;5.70;3.70;;;4.60;99.90;;;;;;5067119;28;20061;-45
2024/03/24 01:45:08;;;;;;;5.63;3.75;;;4.60;99.90;;;;;;5068028;28;20053;-43
2024/03/24 01:47:35;;;;;;;6.07;3.55;;;4.50;99.90;;;;;;5066636;28;20508;-41
2024/03/24 01:50:03;;;;;;;6.88;3.50;;;4.60;99.90;;;;;;5068136;28;20060;-45
2024/03/24 01:52:29;;;;;;;7.18;3.47;;;4.50;99.90;;;;;;5064127;28;20097;-40
2024/03/24 01:54:56;;;;;;;8.00;3.50;;;4.50;99.90;;;;;;5065143;28;20282;-42
2024/03/24 01:57:23;;;;;;;13.88;4.65;;;4.50;99.90;;;;;;5067462;28;20102;-48
2024/03/24 01:59:50;;;;;;;7.55;3.20;;;4.50;99.90;;;;;;5068798;28;20087;-43
2024/03/24 02:02:16;;;;;;;8.25;3.53;;;4.50;99.90;;;;;;5065892;28;20041;-44
2024/03/24 02:04:48;;;;;;;4.88;3.47;;;4.60;99.90;;;;;;5067826;28;20040;-45
2024/03/24 02:07:14;;;;;;;6.07;3.40;;;4.60;99.90;;;;;;5064741;28;20409;-48
2024/03/24 02:09:42;;;;;;;6.18;3.60;;;4.70;99.90;;;;;;5067663;28;20185;-45
2024/03/24 02:12:08;;;;;;;6.40;3.50;;;4.70;99.90;;;;;;5065821;28;20063;-46
2024/03/24 02:14:34;;;;;;;7.45;4.15;;;4.70;99.90;;;;;;5066901;28;20097;-49
2024/03/24 02:17:00;;;;;;;5.90;3.53;;;4.70;99.90;;;;;;5065361;28;20044;-47
2024/03/24 02:19:27;;;;;;;7.53;3.80;;;4.70;99.90;;;;;;5067631;28;20503;-44
2024/03/24 02:21:53;;;;;;;10.30;3.42;;;4.70;99.90;;;;;;5049139;28;20500;-43
2024/03/24 02:24:19;;;;;;;6.72;3.45;;;4.60;99.90;;;;;;5067942;28;20090;-42
2024/03/24 02:26:45;;;;;;;5.75;3.40;;;4.70;99.90;;;;;;5066626;28;20053;-44
2024/03/24 02:29:13;;;;;;;5.20;3.22;;;4.70;99.90;;;;;;5067598;28;20056;-47
2024/03/24 02:31:43;;;;;;;5.07;3.13;;;4.60;99.90;;;;;;5055986;28;20123;-46
2024/03/24 02:34:11;;;;;;;6.03;3.55;;;4.60;99.90;;;;;;5064365;28;20048;-44
2024/03/24 02:36:37;;;;;;;6.78;3.83;;;4.60;99.90;;;;;;5055374;28;20580;-41
2024/03/24 02:39:05;;;;;;;6.35;3.60;;;4.60;99.90;;;;;;5063159;28;20067;-43
2024/03/24 02:41:34;;;;;;;6.00;3.63;;;4.60;99.90;;;;;;5058922;28;20182;-45
2024/03/24 02:44:00;;;;;;;6.40;3.25;;;4.60;99.90;;;;;;5057869;28;20037;-45
2024/03/24 02:46:26;;;;;;;6.53;3.45;;;4.60;99.90;;;;;;5065771;28;20276;-45
2024/03/24 02:48:52;;;;;;;4.47;3.35;;;4.60;99.90;;;;;;5062557;28;20289;-43
2024/03/24 02:51:18;;;;;;;6.25;3.67;;;4.60;99.90;;;;;;5066318;28;20048;-44
2024/03/24 02:53:44;;;;;;;5.85;3.60;;;4.60;99.90;;;;;;5061069;28;20082;-43
2024/03/24 02:56:10;;;;;;;4.80;3.10;;;4.60;99.90;;;;;;5070192;28;20044;-46
2024/03/24 02:58:36;;;;;;;5.85;3.08;;;4.60;99.90;;;;;;5062123;28;20041;-48
2024/03/24 03:01:03;;;;;;;6.45;3.63;;;4.50;99.90;;;;;;5068440;28;20078;-43
2024/03/24 03:03:28;;;;;;;6.15;3.40;;;4.50;99.90;;;;;;5067770;28;20048;-45
2024/03/24 03:05:55;;;;;;;5.78;3.47;;;4.50;99.90;;;;;;5069704;28;20040;-49
2024/03/24 03:08:21;;;;;;;9.75;3.78;;;4.60;99.90;;;;;;5067762;28;20064;-46
2024/03/24 03:10:47;;;;;;;7.47;3.88;;;4.50;99.90;;;;;;5061161;28;20033;-44
2024/03/24 03:13:12;;;;;;;5.55;3.50;;;4.60;99.90;;;;;;5065940;28;20055;-43
2024/03/24 03:15:38;;;;;;;5.20;3.70;;;4.60;99.90;;;;;;5065564;28;20048;-45
2024/03/24 03:18:06;;;;;;;6.07;3.50;;;4.40;99.90;;;;;;5058372;28;20118;-43
2024/03/24 03:20:32;;;;;;;5.95;3.47;;;4.40;99.90;;;;;;5066149;28;20048;-47
2024/03/24 03:22:58;;;;;;;7.30;3.60;;;4.30;99.90;;;;;;5061315;28;20178;-46
2024/03/24 03:25:24;;;;;;;6.53;3.63;;;4.30;99.90;;;;;;5068443;28;20454;-46
2024/03/24 03:27:50;;;;;;;4.72;3.50;;;4.20;99.90;;;;;;5065020;28;20566;-44
2024/03/24 03:30:16;;;;;;;5.45;3.30;;;4.10;99.90;;;;;;5068435;28;20077;-47
2024/03/24 03:32:42;;;;;;;4.50;3.00;;;4.00;99.90;;;;;;5074021;28;20357;-41
2024/03/24 03:35:08;;;;;;;5.15;3.17;;;3.90;99.90;;;;;;5069779;28;20311;-44
2024/03/24 03:37:34;;;;;;;4.10;2.80;;;3.80;99.90;;;;;;5068314;28;20041;-42
2024/03/24 03:40:00;;;;;;;5.15;3.08;;;3.70;99.90;;;;;;5066225;28;20036;-45
2024/03/24 03:42:26;;;;;;;5.10;2.80;;;3.70;99.90;;;;;;5060266;28;20543;-46
2024/03/24 03:44:55;;;;;;;3.72;2.83;;;3.60;99.90;;;;;;5049154;28;20110;-44
2024/03/24 03:47:22;;;;;;;3.88;2.83;;;3.50;99.90;;;;;;5064719;28;20033;-49
2024/03/24 03:49:51;;;;;;;4.70;3.33;;;3.50;99.90;;;;;;5065687;28;20044;-47
2024/03/24 03:52:17;;;;;;;6.05;2.75;;;3.50;99.90;;;;;;5064508;28;20442;-48
2024/03/24 03:54:47;;;;;;;4.47;3.33;;;3.40;99.90;;;;;;5065801;28;20036;-45
2024/03/24 03:57:13;;;;;;;5.22;3.40;;;3.50;99.90;;;;;;5046835;28;20082;-42
2024/03/24 03:59:39;;;;;;;3.88;2.97;;;3.40;99.90;;;;;;5066147;28;20045;-42
2024/03/24 04:02:06;;;;;;;5.25;3.17;;;3.40;99.90;;;;;;5064835;28;20090;-45
2024/03/24 04:04:32;;;;;;;3.92;3.17;;;3.40;99.90;;;;;;5066142;28;20079;-45
2024/03/24 04:06:58;;;;;;;4.63;3.10;;;3.40;99.90;;;;;;5063287;28;20049;-44
2024/03/24 04:09:24;;;;;;;5.85;3.13;;;3.50;99.90;;;;;;5063180;28;20095;-44
2024/03/24 04:11:50;;;;;;;5.43;3.30;;;3.50;99.90;;;;;;5065613;28;20074;-49
2024/03/24 04:14:16;;;;;;;4.25;3.10;;;3.50;99.90;;;;;;5064682;28;20048;-47
2024/03/24 04:16:42;;;;;;;5.10;3.08;;;3.50;99.90;;;;;;5065580;28;20043;-44
2024/03/24 04:19:08;;;;;;;3.75;3.03;;;3.50;99.90;;;;;;5062018;28;20071;-45
2024/03/24 04:21:37;;;;;;;4.50;3.35;;;3.40;99.90;;;;;;5067409;28;20117;-44
2024/03/24 04:24:04;;;;;;;5.15;3.40;;;3.40;99.90;;;;;;5067054;28;20449;-41
2024/03/24 04:26:30;;;;;;;4.60;3.13;;;3.30;99.90;;;;;;5060628;28;20055;-45
2024/03/24 04:28:56;;;;;;;5.05;3.28;;;3.40;99.90;;;;;;5068464;28;20076;-43
2024/03/24 04:31:22;;;;;;;4.07;3.13;;;3.30;99.90;;;;;;5064477;28;20159;-44
2024/03/24 04:33:47;;;;;;;4.63;3.05;;;3.40;99.90;;;;;;5043037;28;20049;-46
2024/03/24 04:36:13;;;;;;;3.78;2.97;;;3.40;99.90;;;;;;5064316;28;20076;-46
2024/03/24 04:38:40;;;;;;;3.88;3.22;;;3.40;99.90;;;;;;5066092;28;20106;-44
2024/03/24 04:41:08;;;;;;;4.57;2.85;;;3.40;99.90;;;;;;5065175;28;20520;-46
2024/03/24 04:43:34;;;;;;;5.28;3.30;;;3.50;99.90;;;;;;5049095;28;20093;-45
2024/03/24 04:46:00;;;;;;;4.55;3.28;;;3.40;99.90;;;;;;5065659;28;20082;-48
2024/03/24 04:48:26;;;;;;;3.25;2.65;;;3.40;99.90;;;;;;5063539;28;20029;-45
2024/03/24 04:50:55;;;;;;;7.03;3.13;;;3.30;99.90;;;;;;5064310;28;20044;-51
2024/03/24 04:53:24;;;;;;;3.92;2.95;;;3.40;99.90;;;;;;5064969;28;20044;-44
2024/03/24 04:55:50;;;;;;;5.40;3.40;;;3.40;99.90;;;;;;5045942;28;20056;-47
2024/03/24 04:58:17;;;;;;;3.60;2.92;;;3.40;99.90;;;;;;5061367;28;20041;-44
2024/03/24 05:00:44;;;;;;;4.38;3.13;;;3.40;99.90;;;;;;5065816;28;20295;-43
2024/03/24 05:03:10;;;;;;;3.83;2.88;;;3.50;99.90;;;;;;5065146;28;20052;-42
2024/03/24 05:05:38;;;;;;;4.57;3.53;;;3.50;99.90;;;;;;5066923;28;20064;-44
2024/03/24 05:08:05;;;;;;;4.05;3.13;;;3.50;99.90;;;;;;5065984;28;20040;-48
2024/03/24 05:10:32;;;;;;;5.78;2.90;;;3.50;99.90;;;;;;5068598;28;20489;-44
2024/03/24 05:12:58;;;;;;;3.80;2.80;;;3.50;99.90;;;;;;5066685;28;20055;-44
2024/03/24 05:15:24;;;;;;;4.60;2.85;;;3.50;99.90;;;;;;5069446;28;20041;-44
2024/03/24 05:17:52;;;;;;;3.75;3.00;;;3.50;99.90;;;;;;5067645;28;20540;-45
2024/03/24 05:20:18;;;;;;;5.80;3.95;;;3.60;99.90;;;;;;5066333;28;20040;-46
2024/03/24 05:22:44;;;;;;;5.68;3.20;;;3.60;99.90;;;;;;5068071;28;20082;-43
2024/03/24 05:25:10;;;;;;;4.00;3.15;;;3.50;99.90;;;;;;5068832;28;20048;-44
2024/03/24 05:27:36;;;;;;;3.58;2.67;;;3.50;99.90;;;;;;5068425;28;20040;-46
2024/03/24 05:30:02;;;;;;;5.20;3.08;;;3.40;99.90;;;;;;5068460;28;20056;-49
2024/03/24 05:32:29;;;;;;;4.38;3.10;;;3.30;99.90;;;;;;5047656;28;20052;-48
2024/03/24 05:34:55;;;;;;;6.60;3.25;;;3.20;99.90;;;;;;5068550;28;20072;-44
2024/03/24 05:37:21;;;;;;;4.65;3.42;;;3.20;99.90;;;;;;5063739;28;20044;-42
2024/03/24 05:39:48;;;;;;;4.15;3.33;;;3.30;99.90;;;;;;5067801;28;20126;-45
2024/03/24 05:42:15;;;;;;;4.15;3.22;;;3.30;99.90;;;;;;5067126;28;20131;-40
2024/03/24 05:44:41;;;;;;;5.18;3.35;;;3.40;99.90;;;;;;5069401;28;20063;-43
2024/03/24 05:47:07;;;;;;;5.35;2.95;;;3.40;99.90;;;;;;5065840;28;20583;-42
2024/03/24 05:49:32;;;;;;;4.88;3.35;;;3.40;99.90;;;;;;5069151;28;20052;-42
2024/03/24 05:51:58;;;;;;;5.95;3.40;;;3.40;99.90;;;;;;5063235;28;20036;-46
2024/03/24 05:54:24;;;;;;;5.72;3.22;;;3.50;99.90;;;;;;5069800;28;20490;-44
2024/03/24 05:56:50;;;;;;;4.40;2.95;;;3.60;99.90;;;;;;5067395;28;20037;-42
2024/03/24 05:59:17;;;;;;;6.43;2.80;;;3.70;99.90;;;;;;5068438;28;20464;-43
2024/03/24 06:01:43;;;;;;;3.55;2.80;;;3.70;99.90;;;;;;5068147;28;20514;-48
2024/03/24 06:04:09;;;;;;;4.00;3.08;;;3.80;99.90;;;;;;5071445;28;20041;-48
2024/03/24 06:06:35;;;;;;;4.13;2.80;;;3.80;99.90;;;;;;5068631;28;20094;-47
2024/03/24 06:09:01;;;;;;;4.85;3.03;;;3.90;99.90;;;;;;5067896;28;20083;-48
2024/03/24 06:11:28;;;;;;;4.10;2.80;;;4.00;99.90;;;;;;5065874;28;20074;-43
2024/03/24 06:13:53;;;;;;;4.32;3.03;;;4.10;99.90;;;;;;5068321;28;20036;-43
2024/03/24 06:16:19;;;;;;;5.05;2.97;;;4.10;99.90;;;;;;5064307;28;20064;-43
2024/03/24 06:18:45;;;;;;;7.25;3.00;;;4.20;99.90;;;;;;5068082;28;20044;-47
2024/03/24 06:21:11;;;;;;;4.22;3.15;;;4.20;99.90;;;;;;5065183;28;20048;-46
2024/03/24 06:23:38;;;;;;;4.78;3.83;;;4.30;99.90;;;;;;5068162;28;20040;-48
2024/03/24 06:26:04;;;;;;;4.00;3.00;;;4.30;99.90;;;;;;5066048;28;20040;-51
2024/03/24 06:28:30;;;;;;;3.83;2.97;;;4.30;99.90;;;;;;5069621;28;20164;-47
2024/03/24 06:30:56;;;;;;;4.60;3.72;;;4.30;99.90;;;;;;5067204;28;20162;-48
2024/03/24 06:33:22;;;;;;;5.40;3.35;;;4.30;99.90;;;;;;5068464;28;20053;-44
2024/03/24 06:35:48;;;;;;;4.40;3.10;;;4.30;99.90;;;;;;5063717;28;20044;-47
2024/03/24 06:38:14;;;;;;;5.25;3.28;;;4.30;99.90;;;;;;5064196;28;20052;-42
2024/03/24 06:40:39;;;;;;;4.13;3.13;;;4.40;99.90;;;;;;5066844;28;20562;-43
2024/03/24 06:43:09;;;;;;;5.05;2.90;;;4.50;99.90;;;;;;5064494;28;20454;-44
2024/03/24 06:45:35;;;;;;;5.90;3.30;;;4.50;99.90;;;;;;5064458;28;20051;-44
2024/03/24 06:48:02;;;;;;;3.83;3.05;;;4.60;99.90;;;;;;5064913;28;20048;-44
2024/03/24 06:50:29;;;;;;;4.85;3.40;;;4.70;99.90;;;;;;5066804;28;20155;-48
2024/03/24 06:52:56;;;;;;;4.30;3.10;;;4.70;99.90;;;;;;5066915;28;20294;-43
2024/03/24 06:55:24;;;;;;;6.80;3.70;;;4.70;99.90;;;;;;5067213;28;20059;-48
2024/03/24 06:57:50;;;;;;;4.38;3.30;;;4.70;99.90;;;;;;5064745;28;20325;-44
2024/03/24 07:00:19;;;;;;;4.57;3.60;;;4.80;99.90;;;;;;5065205;28;20349;-47
2024/03/24 07:02:46;;;;;;;4.60;3.45;;;4.90;99.90;;;;;;5060606;28;20036;-45
2024/03/24 07:05:12;;;;;;;6.20;3.55;;;5.00;99.90;;;;;;5065208;28;20090;-47
2024/03/24 07:07:38;;;;;;;5.78;3.28;;;5.00;99.90;;;;;;5061251;28;20063;-43
2024/03/24 07:10:06;;;;;;;5.80;3.47;;;5.20;99.90;;;;;;5048560;28;20223;-49
2024/03/24 07:12:34;;;;;;;9.23;3.47;;;5.30;99.90;;;;;;5066628;28;20451;-44
2024/03/24 07:15:00;;;;;;;4.38;3.13;;;5.40;99.90;;;;;;5062125;28;20041;-43
2024/03/24 07:17:26;;;;;;;5.20;3.35;;;5.20;99.90;;;;;;5064474;28;20583;-43
2024/03/24 07:19:52;;;;;;;4.63;3.00;;;5.10;99.90;;;;;;5067001;28;20040;-42
2024/03/24 07:22:18;;;;;;;3.97;2.85;;;5.00;99.90;;;;;;5064693;28;20041;-42
2024/03/24 07:24:44;;;;;;;3.97;2.88;;;4.80;99.90;;;;;;5061954;28;20123;-46
2024/03/24 07:27:10;;;;;;;3.80;3.28;;;4.70;99.90;;;;;;5064994;28;20067;-41
2024/03/24 07:29:36;;;;;;;4.00;2.80;;;4.60;99.90;;;;;;5065922;28;20064;-44
2024/03/24 07:32:02;;;;;;;3.80;2.95;;;4.80;99.90;;;;;;5040754;28;20059;-46
2024/03/24 07:34:28;;;;;;;5.95;2.92;;;4.80;99.90;;;;;;5068459;28;20466;-48
2024/03/24 07:36:54;;;;;;;3.97;2.80;;;4.90;99.90;;;;;;5066464;28;20044;-45
2024/03/24 07:39:20;;;;;;;5.03;3.03;;;5.10;99.90;;;;;;5066409;28;20075;-42
2024/03/24 07:41:46;;;;;;;3.67;3.20;;;5.30;99.90;;;;;;5065227;28;20167;-44
2024/03/24 07:44:12;;;;;;;4.15;3.13;;;5.50;99.90;;;;;;5063550;28;20128;-46
2024/03/24 07:46:39;;;;;;;3.70;3.00;;;5.40;99.90;;;;;;5066389;28;20569;-47
2024/03/24 07:49:05;;;;;;;5.05;3.10;;;5.60;99.90;;;;;;5066294;28;20036;-44
2024/03/24 07:51:31;;;;;;;3.83;3.10;;;5.60;99.90;;;;;;5067998;28;20090;-43
2024/03/24 07:53:57;;;;;;;4.95;3.15;;;5.60;99.90;;;;;;5066692;28;20043;-45
2024/03/24 07:56:23;;;;;;;4.20;3.30;;;5.60;99.90;;;;;;5069880;28;20049;-42
2024/03/24 07:58:49;;;;;;;4.43;2.70;;;5.70;99.90;;;;;;5069147;28;20121;-48
2024/03/24 08:01:15;;;;;;;3.63;2.70;;;5.90;99.90;;;;;;5070871;28;20083;-46
2024/03/24 08:03:41;;;;;;;8.52;2.90;;;6.20;99.90;;;;;;5070695;28;20044;-46
2024/03/24 08:06:07;;;;;;;3.63;2.75;;;6.30;99.90;;;;;;5071680;28;20394;-44
2024/03/24 08:08:32;;;;;;;4.25;3.10;;;6.10;99.90;;;;;;5071282;28;20536;-47
2024/03/24 08:10:58;;;;;;;3.35;2.90;;;6.10;99.90;;;;;;5066909;28;20045;-46
2024/03/24 08:13:24;;;;;;;4.70;3.20;;;5.90;99.90;;;;;;5068119;28;20040;-43
2024/03/24 08:15:50;;;;;;;3.75;2.90;;;5.80;99.90;;;;;;5067697;28;20421;-44
2024/03/24 08:18:16;;;;;;;4.25;2.90;;;5.90;99.90;;;;;;5069212;28;20044;-45
2024/03/24 08:20:46;;;;;;;4.63;3.00;;;5.70;99.90;;;;;;5066248;28;20032;-45
2024/03/24 08:23:13;;;;;;;3.58;3.05;;;6.00;99.90;;;;;;5066287;28;20083;-50
2024/03/24 08:25:40;;;;;;;6.38;3.33;;;6.20;99.90;;;;;;5060993;28;20119;-48
2024/03/24 08:28:07;;;;;;;10.20;5.05;;;6.40;99.90;;;;;;5067339;28;20067;-44
2024/03/24 08:30:33;;;;;;;3.53;2.97;;;6.50;99.90;;;;;;5064555;28;20663;-46
2024/03/24 08:32:59;;;;;;;4.80;3.40;;;6.50;99.90;;;;;;5067427;28;20052;-45
2024/03/24 08:35:25;;;;;;;5.95;3.33;;;6.60;99.90;;;;;;5060967;28;20097;-43
2024/03/24 08:37:51;;;;;;;6.47;3.70;;;6.70;99.90;;;;;;5066334;28;20045;-45
2024/03/24 08:40:18;;;;;;;6.28;4.35;;;6.50;99.90;;;;;;5062647;28;20033;-48
2024/03/24 08:42:44;;;;;;;4.88;3.70;;;6.40;99.90;;;;;;5066470;28;20040;-43
2024/03/24 08:45:11;;;;;;;5.28;3.90;;;6.30;99.90;;;;;;5064943;28;20044;-47
2024/03/24 08:47:37;;;;;;;5.47;3.58;;;6.30;99.90;;;;;;5066165;28;20055;-45
2024/03/24 08:50:03;;;;;;;5.38;3.50;;;6.10;99.90;;;;;;5063512;28;20053;-43
2024/03/24 08:52:29;;;;;;;10.10;3.97;;;6.20;99.90;;;;;;5066989;28;20040;-44
2024/03/24 08:54:56;;;;;;;4.22;3.67;;;6.30;99.90;;;;;;5064382;28;20055;-47
2024/03/24 08:57:22;;;;;;;7.45;4.03;;;6.30;99.90;;;;;;5066745;28;20044;-46
2024/03/24 08:59:48;;;;;;;5.70;3.80;;;6.40;99.90;;;;;;5069338;28;20045;-48
2024/03/24 09:02:17;;;;;;;4.32;3.58;;;6.30;99.90;;;;;;5065594;28;20410;-43
2024/03/24 09:04:43;;;;;;;4.07;3.47;;;6.30;99.90;;;;;;5062807;28;20040;-43
2024/03/24 09:07:09;;;;;;;5.05;4.13;;;6.40;99.90;;;;;;5066432;28;20041;-43
2024/03/24 09:09:35;;;;;;;4.93;4.00;;;6.30;99.90;;;;;;5068455;28;20045;-43
2024/03/24 09:12:01;;;;;;;4.78;3.75;;;6.30;99.90;;;;;;5066169;28;20098;-43
2024/03/24 09:14:27;;;;;;;6.15;3.78;;;6.30;99.90;;;;;;5068944;28;20104;-46
2024/03/24 09:16:53;;;;;;;5.70;4.05;;;6.30;99.90;;;;;;5067853;28;20117;-47
2024/03/24 09:19:19;;;;;;;5.85;4.13;;;6.50;99.90;;;;;;5070277;28;20236;-46
2024/03/24 09:21:45;;;;;;;5.68;4.32;;;6.40;99.90;;;;;;5071505;28;20067;-47
2024/03/24 09:24:10;;;;;;;5.10;3.97;;;6.30;99.90;;;;;;5073067;28;20756;-44
2024/03/24 09:26:36;;;;;;;6.07;4.30;;;6.10;99.90;;;;;;5059601;28;20136;-40
2024/03/24 09:29:02;;;;;;;6.22;4.00;;;6.10;99.90;;;;;;5063558;28;20067;-45
2024/03/24 09:31:28;;;;;;;5.60;4.03;;;6.00;99.90;;;;;;5066268;28;20093;-43
2024/03/24 09:33:54;;;;;;;5.32;4.20;;;6.10;99.90;;;;;;5064815;28;20036;-45
2024/03/24 09:36:21;;;;;;;6.95;4.13;;;6.20;99.90;;;;;;5063107;28;20084;-44
2024/03/24 09:38:47;;;;;;;6.88;4.40;;;6.30;99.90;;;;;;5065760;28;20647;-42
2024/03/24 09:41:12;;;;;;;9.73;4.85;;;6.50;99.90;;;;;;5047262;28;20059;-42
2024/03/24 09:43:38;;;;;;;9.38;4.20;;;6.40;99.90;;;;;;5064603;28;20510;-48
2024/03/24 09:46:06;;;;;;;7.18;4.30;;;6.40;99.90;;;;;;5065285;28;20044;-46
2024/03/24 09:48:32;;;;;;;7.07;4.45;;;6.20;99.90;;;;;;5064346;28;20036;-48
2024/03/24 09:51:03;;;;;;;7.30;4.43;;;6.20;99.90;;;;;;5063632;28;20127;-46
2024/03/24 09:53:32;;;;;;;6.85;4.30;;;6.40;99.90;;;;;;5064044;28;20055;-45
2024/03/24 09:56:00;;;;;;;5.60;4.18;;;6.40;99.90;;;;;;5068261;28;20535;-44
2024/03/24 09:58:26;;;;;;;8.45;4.38;;;6.60;99.90;;;;;;5065876;28;20040;-47
2024/03/24 10:00:53;;;;;;;6.75;4.32;;;6.60;99.90;;;;;;5070396;28;20045;-47
2024/03/24 10:03:20;;;;;;;5.57;4.63;;;6.50;99.90;;;;;;5068975;28;20044;-45
2024/03/24 10:05:47;;;;;;;7.47;4.65;;;6.60;99.90;;;;;;5070450;28;20041;-44
2024/03/24 10:08:13;;;;;;;6.93;4.38;;;6.50;99.90;;;;;;5066138;28;20036;-42
2024/03/24 10:10:40;;;;;;;6.40;4.43;;;6.50;99.90;;;;;;5069000;28;20036;-44
2024/03/24 10:13:08;;;;;;;6.68;4.68;;;6.40;99.90;;;;;;5069264;28;20390;-43
2024/03/24 10:15:35;;;;;;;5.72;4.32;;;6.30;99.90;;;;;;5068734;28;20052;-49
2024/03/24 10:18:06;;;;;;;5.75;4.32;;;6.40;99.90;;;;;;5070615;28;20053;-47
2024/03/24 10:20:33;;;;;;;8.00;4.47;;;6.50;99.90;;;;;;5070104;28;20043;-46
2024/03/24 10:23:00;;;;;;;7.38;4.25;;;6.50;99.90;;;;;;5068019;28;20385;-43
2024/03/24 10:25:30;;;;;;;6.38;4.10;;;6.70;99.90;;;;;;5068446;28;20124;-45
2024/03/24 10:27:57;;;;;;;5.35;3.97;;;6.70;99.90;;;;;;5067737;28;20040;-42
2024/03/24 10:30:24;;;;;;;8.98;4.38;;;6.80;99.90;;;;;;5069190;28;20074;-49
2024/03/24 10:32:50;;;;;;;5.68;4.03;;;6.70;99.90;;;;;;5069346;28;20702;-44
2024/03/24 10:35:16;;;;;;;5.63;4.00;;;6.70;99.90;;;;;;5066564;28;20079;-43
2024/03/24 10:37:46;;;;;;;6.15;4.40;;;6.80;99.90;;;;;;5066657;28;20040;-45
2024/03/24 10:40:16;;;;;;;7.28;3.75;;;6.80;99.90;;;;;;5069063;28;20048;-47
2024/03/24 10:42:54;;;;;;;7.10;4.30;;;7.00;99.90;;;;;;5066023;28;20528;-47
2024/03/24 10:45:25;;;;;;;5.55;3.75;;;7.00;99.90;;;;;;5069948;28;20071;-44
2024/03/24 10:48:00;;;;;;;4.53;3.72;;;7.10;99.90;;;;;;5064960;28;20468;-44
2024/03/24 10:50:27;;;;;;;5.03;3.60;;;6.90;99.90;;;;;;5069009;28;20044;-45
2024/03/24 10:52:56;;;;;;;6.65;3.80;;;6.90;99.90;;;;;;5066527;28;20087;-49
2024/03/24 10:55:23;;;;;;;8.20;4.43;;;7.10;99.90;;;;;;5069226;28;20079;-40
2024/03/24 10:57:51;;;;;;;6.25;4.00;;;7.30;99.90;;;;;;5065923;28;20052;-48
2024/03/24 11:00:17;;;;;;;8.65;4.00;;;7.30;99.90;;;;;;5071091;28;20048;-48
2024/03/24 11:02:43;;;;;;;5.57;4.50;;;7.30;99.90;;;;;;5070643;28;20515;-45
2024/03/24 11:05:10;;;;;;;6.75;4.28;;;7.10;99.90;;;;;;5068297;28;20099;-43
2024/03/24 11:07:39;;;;;;;8.13;4.35;;;6.90;99.90;;;;;;5049763;28;20105;-43
2024/03/24 11:10:06;;;;;;;7.50;4.35;;;6.90;99.90;;;;;;5068284;28;20256;-45
2024/03/24 11:12:36;;;;;;;7.53;4.07;;;6.80;99.90;;;;;;5067228;28;20038;-44
2024/03/24 11:15:05;;;;;;;5.90;4.25;;;6.90;99.90;;;;;;5067580;28;20052;-47
2024/03/24 11:17:31;;;;;;;5.72;3.90;;;7.10;99.90;;;;;;5050246;28;20131;-44
2024/03/24 11:20:03;;;;;;;6.03;3.90;;;7.20;99.90;;;;;;5068413;28;20079;-46
2024/03/24 11:22:41;;;;;;;7.50;4.07;;;7.20;99.90;;;;;;5065795;28;20163;-46
2024/03/24 11:25:08;;;;;;;7.22;3.63;;;7.30;99.90;;;;;;5067722;28;20037;-47
2024/03/24 11:27:42;;;;;;;5.63;3.65;;;6.90;99.90;;;;;;5067123;28;20539;-45
2024/03/24 11:30:16;;;;;;;8.55;3.92;;;7.00;99.90;;;;;;5068486;28;20082;-45
2024/03/24 11:32:54;;;;;;;6.57;4.00;;;7.00;99.90;;;;;;5066820;28;20037;-43
2024/03/24 11:35:28;;;;;;;6.72;3.78;;;7.40;99.90;;;;;;5067697;28;20143;-43
2024/03/24 11:37:56;;;;;;;8.45;4.40;;;7.60;99.90;;;;;;5067244;28;20078;-41
2024/03/24 11:40:24;;;;;;;4.78;3.53;;;7.90;99.90;;;;;;5068542;28;20066;-44
2024/03/24 11:42:52;;;;;;;5.03;3.58;;;7.90;99.90;;;;;;5060511;28;20048;-43
2024/03/24 11:45:30;;;;;;;6.97;3.83;;;7.30;99.90;;;;;;5066485;28;20051;-45
2024/03/24 11:48:19;;;;;;;6.22;3.70;;;6.90;99.90;;;;;;5063560;28;20041;-45
2024/03/24 11:50:47;;;;;;;7.85;3.95;;;6.80;99.90;;;;;;5064217;28;20071;-44
2024/03/24 11:53:15;;;;;;;5.57;3.80;;;6.80;99.90;;;;;;5066769;28;20041;-46
2024/03/24 11:55:43;;;;;;;7.28;4.07;;;7.00;99.90;;;;;;5064836;28;20051;-49
2024/03/24 11:58:08;;;;;;;7.78;4.30;;;6.90;99.90;;;;;;5065633;28;21283;-46
2024/03/24 12:00:34;;;;;;;5.53;3.80;;;6.90;99.90;;;;;;5068433;28;20048;-44
2024/03/24 12:03:00;;;;;;;7.60;4.00;;;6.80;99.90;;;;;;5065306;28;20044;-45
2024/03/24 12:05:27;;;;;;;8.73;3.70;;;7.00;99.90;;;;;;5070157;28;20064;-42
2024/03/24 12:07:56;;;;;;;5.75;3.60;;;6.90;99.90;;;;;;5062887;28;20055;-48
2024/03/24 12:10:22;;;;;;;6.45;3.60;;;6.70;99.90;;;;;;5067870;28;20048;-48
2024/03/24 12:12:48;;;;;;;5.45;3.60;;;6.70;99.90;;;;;;5065303;28;20130;-46
2024/03/24 12:15:14;;;;;;;4.50;3.20;;;6.90;99.90;;;;;;5069624;28;20516;-44
2024/03/24 12:17:40;;;;;;;7.18;3.38;;;7.30;99.90;;;;;;5068230;28;20090;-47
2024/03/24 12:20:10;;;;;;;6.30;4.00;;;7.50;99.90;;;;;;5069471;28;20044;-50
2024/03/24 12:22:38;;;;;;;8.10;3.92;;;8.10;99.90;;;;;;5065730;28;20161;-41
2024/03/24 12:25:05;;;;;;;5.80;3.70;;;8.60;99.90;;;;;;5067622;28;20049;-49
2024/03/24 12:27:31;;;;;;;4.78;3.60;;;8.80;99.90;;;;;;5068654;28;20056;-47
2024/03/24 12:29:57;;;;;;;8.15;4.38;;;8.80;99.90;;;;;;5067102;28;20060;-46
2024/03/24 12:32:28;;;;;;;6.32;3.83;;;8.60;99.90;;;;;;5068179;28;20048;-44
2024/03/24 12:34:58;;;;;;;6.60;4.10;;;8.00;99.90;;;;;;5064850;28;20091;-44
2024/03/24 12:37:24;;;;;;;6.35;3.58;;;7.80;99.90;;;;;;5062917;28;20048;-48
2024/03/24 12:39:51;;;;;;;6.03;3.58;;;7.70;99.90;;;;;;5066761;28;20131;-45
2024/03/24 12:42:17;;;;;;;6.50;3.72;;;7.30;99.90;;;;;;5060511;28;20041;-44
2024/03/24 12:44:44;;;;;;;8.38;4.55;;;6.90;99.90;;;;;;5066488;28;20037;-46
2024/03/24 12:47:14;;;;;;;10.73;4.40;;;7.10;99.90;;;;;;5063249;28;20063;-45
2024/03/24 12:49:40;;;;;;;8.82;4.40;;;7.40;99.90;;;;;;5066748;28;20066;-46
2024/03/24 12:52:06;;;;;;;5.85;4.00;;;7.60;99.90;;;;;;5062585;28;20162;-45
2024/03/24 12:54:33;;;;;;;6.38;3.88;;;7.40;99.90;;;;;;5066548;28;20419;-44